NCAR-RAP Real-Time Weather Data

Output produced by METARs form (08 May 2021  15:53 UTC)
found at http://weather.rap.ucar.edu/surface/
 
KCMH 081451Z 30013KT 10SM BKN027 07/02 A3011 RMK AO2 SLP199 T00720017 53019
KCMH 081351Z 33008KT 10SM BKN024 06/01 A3009 RMK AO2 SLP194 T00610011
KCMH 081251Z 34011KT 10SM BKN018 05/01 A3007 RMK AO2 SLP185 T00500011
KCMH 081232Z 33010KT 10SM BKN018 05/02 A3006 RMK AO2 T00500017
KCMH 081151Z 31007KT 10SM SCT021 04/01 A3005 RMK AO2 SLP180 70034 T00390011 10056 20028 51026
KCMH 081051Z 31009KT 10SM FEW028 03/01 A3003 RMK AO2 SLP172 T00330011
KCMH 080951Z 33009KT 10SM FEW027 03/02 A3000 RMK AO2 SLP161 T00330017
KCMH 080851Z 32009KT 10SM SCT025 04/02 A2997 RMK AO2 SLP152 T00390017 51007
KCMH 080828Z 31007KT 10SM SCT024 04/02 A2997 RMK AO2 T00390022
KCMH 080751Z 31008KT 10SM BKN023 BKN044 04/02 A2997 RMK AO2 SLP149 T00440022
KCMH 080746Z 31008KT 10SM BKN023 04/02 A2997 RMK AO2
KCMH 080651Z 30007KT 10SM FEW044 04/02 A2995 RMK AO2 SLP144 T00440022
KCMH 080551Z 31008KT 10SM FEW043 06/03 A2994 RMK AO2 SLP141 60022 T00560028 10089 20056 55000
KCMH 080451Z 25003KT 9SM FEW003 SCT040 06/06 A2994 RMK AO2 SLP140 T00610061 401560061
KCMH 080351Z 18003KT 10SM SCT030 SCT075 07/06 A2994 RMK AO2 SLP139 T00670061
KCMH 080251Z 21003KT 10SM SCT046 BKN100 OVC150 08/06 A2995 RMK AO2 RAE49 SLP142 P0017 60022 T00780061 50006
KCMH 080226Z 23003KT 6SM +RA BR SCT018 OVC035 07/06 A2995 RMK AO2 P0013 T00720061
KCMH 080209Z 29006KT 3SM +RA BR SCT018 BKN025 OVC034 08/06 A2996 RMK AO2 P0005 T00780061
KCMH 080151Z 33010KT 9SM -RA FEW023 BKN036 OVC043 08/07 A2995 RMK AO2 SLP143 P0005 T00830072
KCMH 080051Z 19004KT 10SM -RA BKN050 OVC070 08/07 A2993 RMK AO2 RAB42 SLP137 P0000 T00830072
KCMH 072351Z 15006KT 10SM BKN055 BKN085 BKN130 08/06 A2993 RMK AO2 RAB00E39 SLP136 P0009 60012 T00830061 10156 20083 58002
KCMH 072322Z VRB03KT 5SM RA BR FEW024 BKN046 BKN080 08/07 A2994 RMK AO2 RAB00 PRESFR P0008 T00830067
KCMH 072304Z 32011KT 2SM R28L/6000VP6000FT +RA BKN039 BKN050 BKN065 09/07 A2996 RMK AO2 RAB00 P0000 T00940067
KCMH 072251Z 04004KT 10SM VCTS SCT037 BKN049 BKN090 10/07 A2994 RMK AO2 RAB2159E38 SLP140 VCSH SW-NW P0003 T01000067
KCMH 072151Z 36009KT 10SM SCT055 BKN075 BKN095 12/04 A2994 RMK AO2 RAB02E47 SLP141 P0000 T01220044
KCMH 072051Z 27009KT 10SM BKN060 14/01 A2993 RMK AO2 LTG DSNT W SLP136 VCSH SW-NW T01390011 58018
KCMH 071951Z 29006KT 10SM SCT065 BKN090 14/02 A2995 RMK AO2 CIG 060 NW SLP142 T01440022
KCMH 071851Z 27013KT 10SM SCT055 BKN080 14/02 A2997 RMK AO2 SLP149 T01390022
KCMH 071751Z 29010G22KT 10SM SCT055 SCT070 14/03 A2998 RMK AO2 SLP154 60000 T01440028 10144 20072 58002
KCMH 071651Z 30015KT 10SM FEW049 13/03 A2999 RMK AO2 PK WND 32028/1607 SLP157 T01330033
KCMH 071551Z 29014KT 4SM HZ BKN036 11/04 A3000 RMK AO2 SLP159 T01110044
KCMH 071451Z 33009KT 10SM SCT023 BKN031 12/06 A2999 RMK AO2 PK WND 33026/1422 CIG 024 NW SLP157 60000 T01170056 51014
KCMH 071351Z 32015G20KT 7SM BKN016 BKN033 08/06 A2998 RMK AO2 RAB16E28 SLP154 P0000 T00830056
KCMH 071251Z 32012G18KT 9SM BKN016 BKN024 OVC034 08/06 A2997 RMK AO2 SLP148 T00780056
KCMH 071151Z 30012G18KT 9SM BKN016 BKN020 OVC034 08/06 A2995 RMK AO2 SLP142 60024 70048 T00780056 10094 20072 53015
KCMH 071051Z 31010KT 10SM OVC015 08/06 A2992 RMK AO2 RAE48 SLP133 P0001 T00780061
KCMH 070951Z 33014G21KT 10SM -RA SCT010 SCT016 OVC060 08/07 A2990 RMK AO2 SLP125 P0001 T00830067
KCMH 070927Z 32009KT 10SM -RA FEW015 SCT027 OVC060 08/07 A2990 RMK AO2 P0001 T00830072
KCMH 070851Z 33008KT 7SM -RA BKN011 OVC042 08/07 A2990 RMK AO2 SLP126 P0007 60022 T00830072 56015
KCMH 070751Z 23010G18KT 5SM RA BR SCT009 BKN014 OVC039 09/08 A2991 RMK AO2 SLP128 P0010 T00890078
KCMH 070723Z 19007KT 6SM -RA BR SCT008 BKN014 OVC042 09/08 A2991 RMK AO2 P0005 T00890083
KCMH 070651Z 17005KT 4SM RA BR BKN011 BKN033 OVC041 09/09 A2992 RMK AO2 SLP131 P0005 T00890089
KCMH 070605Z 14003KT 5SM -RA BR FEW005 BKN014 OVC041 09/09 A2994 RMK AO2 P0001 T00940089
KCMH 070551Z 15003KT 4SM RA BR SCT007 OVC016 09/08 A2995 RMK AO2 SLP141 P0013 60024 T00940083 10133 20089 56010
KCMH 070521Z COR 15004KT 4SM RA BR SCT007 BKN016 OVC048 09/09 A2995 RMK AO2 P0005 T00940089
KCMH 070451Z 08003KT 5SM -RA BR OVC044 09/08 A2996 RMK AO2 SLP146 P0006 T00890083 401670028
KCMH 070351Z 01004KT 6SM -RA BR OVC048 09/08 A2998 RMK AO2 SLP151 P0001 T00940083
KCMH 070251Z 02005KT 8SM -RA OVC050 09/08 A2999 RMK AO2 SLP156 P0004 60004 T00940083 50000
KCMH 070151Z 35008KT 10SM -RA OVC055 10/08 A3000 RMK AO2 SLP161 P0000 T01000083
KCMH 070051Z 34008KT 10SM -RA OVC055 12/06 A2999 RMK AO2 RAE00B46 SLP156 P0000 T01220056
KCMH 062351Z 31007KT 10SM -RA OVC060 13/04 A2999 RMK AO2 RAB50 SLP157 P0000 60000 T01330044 10167 20133 55008
KCMH 062251Z 23007KT 10SM OVC055 15/03 A2999 RMK AO2 SLP156 T01500033
KCMH 062151Z 24005KT 10SM FEW048 BKN075 OVC250 15/03 A3000 RMK AO2 SLP160 T01500028
KCMH 062051Z 22008KT 10SM FEW048 BKN070 16/02 A3001 RMK AO2 SLP164 T01560022 56023
KCMH 061951Z VRB05KT 10SM SCT065 SCT250 16/02 A3003 RMK AO2 SLP170 T01560022
KCMH 061851Z VRB05KT 10SM BKN055 15/02 A3005 RMK AO2 SLP179 T01500022
KCMH 061751Z VRB05KT 10SM SCT055 SCT140 14/02 A3008 RMK AO2 SLP189 T01440017 10156 20061 58020
KCMH 061651Z VRB06KT 10SM SCT040 BKN140 BKN250 14/02 A3011 RMK AO2 SLP198 T01440017